Time;durP1;ratioP1;P1;durP2;ratioP2;P2;SDS_P1;SDS_P2;PMS_P1;PMS_P2;Temp;Humidity;BMP_temperature;BMP_pressure;BME280_temperature;BME280_humidity;BME280_pressure;Samples;Min_cycle;Max_cycle;Signal;HPM_P1;HPM_P2
2023/07/20 00:00:53;;;;;;;2.17;1.90;;;14.80;99.90;;;;;;5039807;28;20503;-81
2023/07/20 00:03:22;;;;;;;2.20;2.00;;;14.70;99.90;;;;;;5054096;28;20117;-80
2023/07/20 00:05:49;;;;;;;2.55;2.00;;;14.80;99.90;;;;;;5026887;28;20509;-80
2023/07/20 00:08:17;;;;;;;3.47;2.30;;;14.80;99.90;;;;;;5022981;28;20530;-81
2023/07/20 00:10:43;;;;;;;2.75;2.40;;;14.70;99.90;;;;;;5040643;28;20037;-81
2023/07/20 00:13:09;;;;;;;3.78;2.42;;;14.70;99.90;;;;;;5039282;28;20501;-80
2023/07/20 00:15:35;;;;;;;2.75;2.20;;;14.70;99.90;;;;;;5044491;28;20550;-80
2023/07/20 00:18:01;;;;;;;2.17;1.98;;;14.70;99.90;;;;;;5008213;28;20124;-80
2023/07/20 00:20:27;;;;;;;4.85;2.15;;;14.70;99.90;;;;;;5025325;28;20040;-80
2023/07/20 00:22:54;;;;;;;2.83;2.30;;;14.70;99.90;;;;;;5028642;28;20145;-80
2023/07/20 00:25:20;;;;;;;4.20;2.75;;;14.70;99.90;;;;;;5035457;28;20106;-80
2023/07/20 00:27:46;;;;;;;2.63;2.17;;;14.70;99.90;;;;;;5015260;28;20384;-80
2023/07/20 00:30:12;;;;;;;2.83;2.45;;;14.70;99.90;;;;;;5045674;28;20033;-80
2023/07/20 00:32:38;;;;;;;2.70;2.03;;;14.70;99.90;;;;;;5021567;28;20044;-79
2023/07/20 00:35:05;;;;;;;3.22;2.65;;;14.70;99.90;;;;;;5012509;28;20118;-81
2023/07/20 00:37:31;;;;;;;2.80;2.50;;;14.70;99.90;;;;;;5070608;28;20398;-80
2023/07/20 00:39:57;;;;;;;2.95;2.40;;;14.70;99.90;;;;;;5068300;28;20040;-80
2023/07/20 00:42:23;;;;;;;3.22;2.35;;;14.70;99.90;;;;;;5016479;28;20037;-80
2023/07/20 00:44:48;;;;;;;2.67;2.22;;;14.70;99.90;;;;;;5025331;28;20032;-80
2023/07/20 00:47:15;;;;;;;3.20;2.20;;;14.70;99.90;;;;;;5001034;28;20068;-80
2023/07/20 00:49:40;;;;;;;4.00;2.25;;;14.90;99.90;;;;;;5034878;28;20068;-80
2023/07/20 00:52:07;;;;;;;2.40;2.20;;;14.70;99.90;;;;;;5019685;28;20037;-80
2023/07/20 00:54:34;;;;;;;2.92;2.40;;;14.70;99.90;;;;;;5057442;28;20095;-80
2023/07/20 00:57:01;;;;;;;3.72;2.47;;;14.70;99.90;;;;;;5011053;28;20160;-80
2023/07/20 00:59:27;;;;;;;4.25;2.42;;;14.60;99.90;;;;;;5026522;28;20532;-80
2023/07/20 01:01:53;;;;;;;3.75;2.60;;;14.70;99.90;;;;;;5028312;28;20068;-80
2023/07/20 01:04:19;;;;;;;2.63;2.42;;;14.70;99.90;;;;;;5046789;28;20092;-80
2023/07/20 01:07:13;;;;;;;3.15;2.55;;;14.70;99.90;;;;;;5067953;28;20033;-80
2023/07/20 01:10:07;;;;;;;3.95;2.53;;;14.60;99.90;;;;;;5039514;28;20041;-80
2023/07/20 01:12:42;;;;;;;2.47;2.28;;;14.60;99.90;;;;;;5061334;28;20045;-80
2023/07/20 01:15:08;;;;;;;6.07;2.67;;;14.60;99.90;;;;;;5030534;28;20033;-80
2023/07/20 01:17:35;;;;;;;3.38;2.35;;;14.60;99.90;;;;;;5028886;28;20402;-80
2023/07/20 01:20:00;;;;;;;3.50;2.70;;;14.60;99.90;;;;;;5024629;28;20460;-80
2023/07/20 01:23:07;;;;;;;3.70;2.60;;;14.60;99.90;;;;;;5064725;28;20036;-80
2023/07/20 01:25:45;;;;;;;2.55;2.35;;;14.60;99.90;;;;;;5047981;28;20060;-80
2023/07/20 01:28:19;;;;;;;3.15;2.38;;;14.60;99.90;;;;;;5028813;28;20740;-79
2023/07/20 01:30:48;;;;;;;3.53;2.33;;;14.60;99.90;;;;;;5029522;28;20037;-80
2023/07/20 01:33:16;;;;;;;2.95;2.25;;;14.60;99.90;;;;;;5037656;28;20041;-80
2023/07/20 01:35:44;;;;;;;2.33;2.00;;;14.60;99.90;;;;;;5031571;28;20032;-80
2023/07/20 01:38:12;;;;;;;3.00;2.08;;;14.60;99.90;;;;;;5078737;28;20033;-80
2023/07/20 01:40:40;;;;;;;3.83;1.90;;;14.50;99.90;;;;;;5029315;28;20506;-80
2023/07/20 01:43:06;;;;;;;2.67;2.00;;;14.60;99.90;;;;;;5024622;28;20687;-80
2023/07/20 01:45:31;;;;;;;4.05;2.03;;;14.50;99.90;;;;;;5062277;28;20117;-80
2023/07/20 01:47:57;;;;;;;3.03;2.20;;;14.50;99.90;;;;;;5029313;28;20068;-80
2023/07/20 01:50:23;;;;;;;2.80;2.28;;;14.50;99.90;;;;;;5049312;28;20033;-80
2023/07/20 01:52:48;;;;;;;2.88;1.95;;;14.50;99.90;;;;;;5012545;28;20444;-79
2023/07/20 01:55:14;;;;;;;2.20;1.85;;;14.40;99.90;;;;;;5054141;28;20033;-80
2023/07/20 01:57:40;;;;;;;3.42;2.10;;;14.40;99.90;;;;;;5012042;28;20112;-80
2023/07/20 02:00:06;;;;;;;3.13;2.00;;;14.40;99.90;;;;;;5021879;28;20088;-80
2023/07/20 02:02:32;;;;;;;2.33;2.10;;;14.30;99.90;;;;;;5016563;28;20046;-80
2023/07/20 02:04:58;;;;;;;2.20;2.00;;;14.30;99.90;;;;;;5010629;28;20048;-80
2023/07/20 02:07:24;;;;;;;3.42;2.40;;;14.30;99.90;;;;;;5046776;28;20547;-80
2023/07/20 02:09:49;;;;;;;2.90;2.40;;;14.30;99.90;;;;;;5020654;28;20033;-80
2023/07/20 02:12:15;;;;;;;3.67;2.63;;;14.20;99.90;;;;;;5009597;28;20029;-80
2023/07/20 02:14:41;;;;;;;6.88;2.88;;;14.20;99.90;;;;;;5076843;28;20139;-80
2023/07/20 02:17:06;;;;;;;3.30;3.00;;;14.10;99.90;;;;;;5034212;28;20710;-80
2023/07/20 02:19:32;;;;;;;3.33;2.97;;;14.10;99.90;;;;;;5026920;28;20053;-79
2023/07/20 02:21:58;;;;;;;5.00;3.40;;;14.00;99.90;;;;;;5026335;28;20486;-79
2023/07/20 02:24:24;;;;;;;3.55;3.05;;;14.00;99.90;;;;;;5025574;28;20045;-80
2023/07/20 02:26:50;;;;;;;5.40;3.42;;;13.90;99.90;;;;;;5040401;28;20514;-79
2023/07/20 02:29:16;;;;;;;3.92;3.15;;;13.90;99.90;;;;;;5056327;28;20053;-80
2023/07/20 02:31:42;;;;;;;4.68;3.78;;;13.90;99.90;;;;;;5016372;28;20532;-80
2023/07/20 02:34:09;;;;;;;3.83;3.40;;;13.80;99.90;;;;;;5011869;28;20041;-79
2023/07/20 02:36:35;;;;;;;6.07;3.80;;;13.70;99.90;;;;;;5043200;28;20155;-79
2023/07/20 02:39:03;;;;;;;5.38;4.20;;;13.70;99.90;;;;;;5047399;28;20038;-80
2023/07/20 02:41:30;;;;;;;4.30;3.70;;;13.70;99.90;;;;;;5014388;28;20066;-79
2023/07/20 02:43:56;;;;;;;6.97;4.72;;;13.60;99.90;;;;;;5028712;28;20152;-80
2023/07/20 02:46:22;;;;;;;6.00;3.85;;;13.60;99.90;;;;;;5010834;28;20044;-80
2023/07/20 02:48:48;;;;;;;5.38;4.28;;;13.60;99.90;;;;;;5028354;28;20036;-80
2023/07/20 02:51:13;;;;;;;7.28;4.32;;;13.50;99.90;;;;;;5028990;28;20041;-80
2023/07/20 02:53:39;;;;;;;5.57;4.50;;;13.50;99.90;;;;;;5035836;28;20048;-79
2023/07/20 02:56:05;;;;;;;5.90;5.03;;;13.50;99.90;;;;;;5042108;28;20049;-80
2023/07/20 02:58:30;;;;;;;7.85;4.82;;;13.40;99.90;;;;;;5040918;28;20051;-80
2023/07/20 03:00:56;;;;;;;5.70;4.45;;;13.40;99.90;;;;;;5035976;28;20033;-79
2023/07/20 03:03:22;;;;;;;6.63;5.68;;;13.30;99.90;;;;;;5012555;28;20041;-80
2023/07/20 03:05:54;;;;;;;8.38;5.72;;;13.30;99.90;;;;;;5025973;28;20045;-80
2023/07/20 03:08:20;;;;;;;7.63;5.72;;;13.30;99.90;;;;;;5039311;28;20033;-80
2023/07/20 03:10:45;;;;;;;8.80;7.15;;;13.20;99.90;;;;;;5025709;28;20071;-79
2023/07/20 03:13:12;;;;;;;12.57;6.93;;;13.20;99.90;;;;;;5010253;28;20077;-80
2023/07/20 03:15:38;;;;;;;6.88;6.15;;;13.20;99.90;;;;;;5020417;28;20041;-80
2023/07/20 03:18:04;;;;;;;7.65;6.15;;;13.20;99.90;;;;;;5013865;28;20033;-79
2023/07/20 03:20:30;;;;;;;8.77;6.82;;;13.20;99.90;;;;;;5019179;28;20041;-80
2023/07/20 03:22:56;;;;;;;11.02;7.07;;;13.10;99.90;;;;;;5075052;28;20096;-79
2023/07/20 03:25:22;;;;;;;8.43;6.63;;;13.10;99.90;;;;;;5019291;28;20041;-79
2023/07/20 03:27:48;;;;;;;9.85;7.15;;;13.10;99.90;;;;;;5020699;28;20050;-79
2023/07/20 03:30:14;;;;;;;8.13;7.20;;;13.10;99.90;;;;;;5072650;28;20082;-80
2023/07/20 03:32:40;;;;;;;9.73;7.28;;;13.10;99.90;;;;;;5018625;28;20553;-80
2023/07/20 03:35:06;;;;;;;7.20;6.25;;;13.00;99.90;;;;;;5014568;28;20037;-80
2023/07/20 03:37:34;;;;;;;7.78;6.72;;;13.00;99.90;;;;;;5026869;28;20078;-80
2023/07/20 03:40:00;;;;;;;8.77;7.60;;;13.00;99.90;;;;;;5046680;28;20061;-80
2023/07/20 03:42:26;;;;;;;8.00;7.15;;;12.90;99.90;;;;;;5012915;28;20489;-80
2023/07/20 03:44:51;;;;;;;7.93;6.53;;;12.90;99.90;;;;;;5027736;28;20119;-80
2023/07/20 03:47:17;;;;;;;8.68;6.18;;;12.90;99.90;;;;;;5026974;28;20040;-80
2023/07/20 03:49:43;;;;;;;9.35;6.80;;;12.90;99.90;;;;;;5021434;28;20029;-80
2023/07/20 03:52:08;;;;;;;8.45;6.80;;;12.80;99.90;;;;;;5020552;28;20033;-80
2023/07/20 03:54:34;;;;;;;9.90;7.07;;;12.80;99.90;;;;;;5017352;28;20045;-79
2023/07/20 03:57:00;;;;;;;7.70;6.55;;;12.80;99.90;;;;;;5041853;28;20609;-80
2023/07/20 03:59:26;;;;;;;9.23;6.40;;;12.80;99.90;;;;;;5051235;28;20045;-80
2023/07/20 04:01:52;;;;;;;7.88;6.82;;;12.80;99.90;;;;;;5012728;28;20037;-80
2023/07/20 04:04:18;;;;;;;8.20;6.97;;;12.80;99.90;;;;;;5054735;28;20114;-80
2023/07/20 04:06:46;;;;;;;8.25;6.85;;;12.70;99.90;;;;;;5023735;28;20543;-80
2023/07/20 04:09:12;;;;;;;8.88;7.20;;;12.70;99.90;;;;;;5008690;28;20037;-80
2023/07/20 04:11:38;;;;;;;9.65;7.43;;;12.70;99.90;;;;;;5006248;28;20041;-80
2023/07/20 04:14:04;;;;;;;9.45;7.57;;;12.70;99.90;;;;;;5009214;28;20029;-80
2023/07/20 04:16:30;;;;;;;8.50;6.75;;;12.70;99.90;;;;;;5037430;28;20678;-80
2023/07/20 04:18:56;;;;;;;9.23;6.70;;;12.70;99.90;;;;;;5027770;28;20060;-80
2023/07/20 04:21:22;;;;;;;9.73;6.53;;;12.70;99.90;;;;;;5008038;28;20115;-80
2023/07/20 04:23:48;;;;;;;7.90;6.05;;;12.70;99.90;;;;;;5019545;28;20593;-80
2023/07/20 04:26:14;;;;;;;9.90;6.43;;;12.70;99.90;;;;;;5009892;28;20043;-80
2023/07/20 04:28:42;;;;;;;9.75;6.18;;;12.70;99.90;;;;;;5025330;28;20049;-80
2023/07/20 04:31:15;;;;;;;7.68;5.72;;;12.70;99.90;;;;;;5010380;28;20043;-80
2023/07/20 04:33:41;;;;;;;8.65;6.53;;;12.70;99.90;;;;;;5032575;28;20168;-80
2023/07/20 04:36:07;;;;;;;7.20;6.03;;;12.70;99.90;;;;;;5024474;28;20052;-80
2023/07/20 04:38:33;;;;;;;7.20;5.55;;;12.60;99.90;;;;;;5005467;28;20044;-80
2023/07/20 04:40:59;;;;;;;6.95;5.80;;;12.60;99.90;;;;;;5025446;28;20094;-80
2023/07/20 04:43:24;;;;;;;6.90;5.00;;;12.70;99.90;;;;;;5015986;28;20481;-80
2023/07/20 04:45:50;;;;;;;7.22;5.45;;;12.70;99.90;;;;;;5023230;28;20036;-80
2023/07/20 04:48:17;;;;;;;10.27;5.30;;;12.70;99.90;;;;;;5012013;28;20661;-80
2023/07/20 04:50:45;;;;;;;6.18;5.10;;;12.70;99.90;;;;;;5041120;28;20037;-80
2023/07/20 04:53:11;;;;;;;5.78;4.60;;;12.70;99.90;;;;;;5059867;28;20064;-80
2023/07/20 04:55:38;;;;;;;5.95;4.35;;;12.70;99.90;;;;;;5032394;28;20391;-80
2023/07/20 04:58:05;;;;;;;6.55;4.80;;;12.80;99.90;;;;;;5027372;28;20557;-81
2023/07/20 05:00:32;;;;;;;6.40;5.32;;;12.80;99.90;;;;;;5031511;28;20132;-80
2023/07/20 05:02:58;;;;;;;7.30;5.07;;;12.80;99.90;;;;;;5045436;28;20033;-80
2023/07/20 05:05:24;;;;;;;6.20;4.90;;;12.80;99.90;;;;;;5004985;28;20557;-80
2023/07/20 05:07:50;;;;;;;5.78;4.88;;;12.80;99.90;;;;;;5042863;28;20041;-80
2023/07/20 05:10:16;;;;;;;4.88;4.35;;;12.90;99.90;;;;;;5028866;28;20037;-80
2023/07/20 05:12:42;;;;;;;5.82;5.10;;;12.90;99.90;;;;;;5033169;28;20098;-80
2023/07/20 05:15:08;;;;;;;5.38;3.80;;;12.90;99.90;;;;;;5009263;28;20124;-80
2023/07/20 05:17:34;;;;;;;5.97;4.80;;;13.00;99.90;;;;;;5075241;28;20041;-80
2023/07/20 05:19:59;;;;;;;7.05;4.30;;;13.10;99.90;;;;;;5021323;28;20044;-80
2023/07/20 05:22:25;;;;;;;4.65;4.15;;;13.10;99.90;;;;;;5042440;28;20121;-81
2023/07/20 05:24:51;;;;;;;6.28;4.13;;;13.10;99.90;;;;;;5018498;28;20064;-80
2023/07/20 05:27:16;;;;;;;4.30;3.25;;;13.20;99.90;;;;;;5047018;28;20086;-81
2023/07/20 05:29:46;;;;;;;4.60;3.20;;;13.20;99.90;;;;;;5029828;28;20072;-81
2023/07/20 05:32:13;;;;;;;8.85;3.80;;;13.20;99.90;;;;;;5029375;28;20490;-81
2023/07/20 05:34:38;;;;;;;4.18;3.13;;;13.30;99.90;;;;;;5074928;28;20043;-80
2023/07/20 05:37:04;;;;;;;4.70;3.22;;;13.40;99.90;;;;;;5009962;28;20044;-80
2023/07/20 05:39:32;;;;;;;4.72;3.00;;;13.40;99.90;;;;;;5073305;28;20049;-81
2023/07/20 05:41:58;;;;;;;4.28;2.80;;;13.40;99.90;;;;;;5045710;28;20037;-81
2023/07/20 05:44:24;;;;;;;5.25;2.60;;;13.50;99.90;;;;;;5048459;28;20441;-80
2023/07/20 05:46:49;;;;;;;3.67;2.63;;;13.60;99.90;;;;;;5026233;28;20029;-81
2023/07/20 05:49:15;;;;;;;2.53;1.92;;;13.70;99.90;;;;;;5058422;28;20029;-81
2023/07/20 05:51:41;;;;;;;2.35;2.15;;;13.70;99.90;;;;;;5009202;28;20128;-81
2023/07/20 05:54:06;;;;;;;2.25;2.05;;;13.80;99.90;;;;;;5054119;28;20049;-80
2023/07/20 05:56:32;;;;;;;2.58;2.28;;;13.80;99.90;;;;;;5005915;28;20048;-80
2023/07/20 05:58:58;;;;;;;2.25;1.90;;;13.90;99.90;;;;;;5048823;28;20045;-81
2023/07/20 06:01:27;;;;;;;2.65;1.90;;;14.00;99.90;;;;;;5022926;28;20047;-80
2023/07/20 06:03:53;;;;;;;2.30;2.10;;;14.00;99.90;;;;;;5026765;28;20037;-86
2023/07/20 06:06:19;;;;;;;4.88;2.17;;;14.10;99.90;;;;;;5068609;28;20524;-78
2023/07/20 06:08:45;;;;;;;2.85;2.00;;;14.20;99.90;;;;;;5034212;28;20178;-78
2023/07/20 06:11:11;;;;;;;2.92;2.00;;;14.30;99.90;;;;;;5018709;28;20037;-76
2023/07/20 06:13:37;;;;;;;2.78;1.77;;;14.30;99.90;;;;;;5051352;28;20037;-78
2023/07/20 06:16:03;;;;;;;1.98;1.75;;;14.40;99.90;;;;;;5034149;28;20037;-79
2023/07/20 06:18:30;;;;;;;3.78;1.83;;;14.50;99.90;;;;;;5050679;28;20052;-81
2023/07/20 06:20:56;;;;;;;1.85;1.63;;;14.60;99.90;;;;;;5034244;28;20048;-80
2023/07/20 06:23:22;;;;;;;3.45;2.00;;;14.60;99.90;;;;;;5050174;28;20035;-81
2023/07/20 06:25:48;;;;;;;2.55;1.58;;;14.70;99.90;;;;;;5028214;28;20033;-77
2023/07/20 06:28:14;;;;;;;4.82;2.03;;;14.70;99.90;;;;;;5037313;28;20056;-80
2023/07/20 06:30:39;;;;;;;5.13;2.00;;;14.80;99.90;;;;;;5037627;28;20131;-80
2023/07/20 06:33:06;;;;;;;3.30;2.00;;;14.90;99.90;;;;;;5013807;28;20150;-80
2023/07/20 06:35:32;;;;;;;3.70;1.90;;;15.00;99.90;;;;;;5014884;28;20037;-80
2023/07/20 06:38:00;;;;;;;1.77;1.60;;;15.10;99.90;;;;;;5014415;28;20491;-80
2023/07/20 06:40:26;;;;;;;3.70;2.00;;;15.10;99.90;;;;;;5030801;28;20041;-80
2023/07/20 06:42:52;;;;;;;3.25;1.60;;;15.20;99.90;;;;;;5017088;28;20053;-80
2023/07/20 06:45:17;;;;;;;1.90;1.67;;;15.30;99.90;;;;;;5083856;28;20116;-80
2023/07/20 06:47:43;;;;;;;2.28;1.40;;;15.30;99.90;;;;;;5007388;28;20037;-80
2023/07/20 06:50:10;;;;;;;2.75;1.38;;;15.40;99.90;;;;;;5030849;28;20041;-80
2023/07/20 06:52:35;;;;;;;1.40;1.30;;;15.50;99.90;;;;;;5030947;28;20235;-80
2023/07/20 06:55:01;;;;;;;1.83;1.35;;;15.50;99.90;;;;;;5014241;28;20574;-81
2023/07/20 06:57:27;;;;;;;2.30;1.33;;;15.60;99.90;;;;;;5030384;28;20080;-81
2023/07/20 06:59:53;;;;;;;3.38;1.15;;;15.70;99.90;;;;;;5015563;28;20037;-81
2023/07/20 07:02:19;;;;;;;1.27;1.10;;;15.80;99.90;;;;;;5012738;28;20044;-81
2023/07/20 07:04:46;;;;;;;3.35;1.63;;;16.00;99.90;;;;;;5032765;28;20658;-79
2023/07/20 07:07:14;;;;;;;2.75;1.50;;;16.10;99.90;;;;;;5033658;28;20123;-78
2023/07/20 07:09:40;;;;;;;3.15;1.60;;;16.20;99.90;;;;;;5032564;28;20040;-79
2023/07/20 07:12:06;;;;;;;5.00;1.50;;;16.30;99.90;;;;;;5033541;28;20379;-78
2023/07/20 07:14:32;;;;;;;3.40;1.67;;;16.30;99.90;;;;;;5032475;28;20066;-79
2023/07/20 07:16:58;;;;;;;3.42;2.10;;;16.30;99.90;;;;;;5049842;28;20507;-78
2023/07/20 07:19:23;;;;;;;2.90;1.75;;;16.30;99.90;;;;;;5017195;28;20040;-79
2023/07/20 07:21:49;;;;;;;2.10;1.52;;;16.30;99.90;;;;;;5017068;28;20088;-79
2023/07/20 07:24:15;;;;;;;1.58;1.10;;;16.40;99.90;;;;;;5049839;28;20482;-79
2023/07/20 07:26:41;;;;;;;6.32;1.60;;;16.60;99.90;;;;;;5033381;28;20099;-78
2023/07/20 07:29:07;;;;;;;3.35;1.42;;;16.80;99.90;;;;;;5032842;28;20053;-78
2023/07/20 07:31:34;;;;;;;3.95;1.40;;;16.90;99.90;;;;;;5016415;28;20033;-81
2023/07/20 07:34:00;;;;;;;2.55;1.23;;;17.00;99.90;;;;;;5049945;28;20040;-80
2023/07/20 07:36:26;;;;;;;4.47;1.58;;;17.20;99.90;;;;;;5033027;28;20045;-80
2023/07/20 07:38:51;;;;;;;4.05;1.40;;;17.50;99.90;;;;;;5016718;28;20049;-80
2023/07/20 07:41:17;;;;;;;1.48;1.02;;;17.60;99.90;;;;;;5032967;28;20047;-80
2023/07/20 07:43:43;;;;;;;2.05;1.05;;;17.50;99.90;;;;;;5016276;28;20064;-80
2023/07/20 07:46:08;;;;;;;3.30;1.60;;;17.30;99.90;;;;;;5032823;28;20036;-80
2023/07/20 07:48:34;;;;;;;2.72;1.27;;;17.20;99.90;;;;;;5033556;28;20045;-80
2023/07/20 07:51:00;;;;;;;6.97;1.58;;;17.10;99.90;;;;;;5033197;28;20039;-80
2023/07/20 07:53:25;;;;;;;1.80;1.10;;;17.00;99.90;;;;;;5016988;28;20040;-80
2023/07/20 07:55:52;;;;;;;4.53;1.23;;;16.90;99.90;;;;;;5033405;28;20087;-80
2023/07/20 07:58:18;;;;;;;3.22;1.52;;;17.00;99.90;;;;;;5039482;28;20051;-80
2023/07/20 08:00:44;;;;;;;3.28;1.13;;;17.20;99.90;;;;;;5046941;28;20095;-80
2023/07/20 08:03:10;;;;;;;1.35;1.08;;;17.40;99.90;;;;;;5046169;28;20040;-81
2023/07/20 08:05:36;;;;;;;1.33;1.23;;;17.70;99.90;;;;;;5063453;28;20542;-81
2023/07/20 08:08:03;;;;;;;1.50;1.17;;;17.80;99.90;;;;;;5049159;28;20116;-81
2023/07/20 08:10:30;;;;;;;1.67;1.23;;;17.80;99.90;;;;;;5065218;28;20052;-81
2023/07/20 08:12:55;;;;;;;1.02;0.85;;;17.70;99.90;;;;;;5048596;28;20382;-80
2023/07/20 08:15:21;;;;;;;3.13;1.58;;;17.80;99.90;;;;;;5020006;28;20048;-80
2023/07/20 08:17:48;;;;;;;3.40;1.35;;;18.10;99.90;;;;;;5062667;28;20033;-81
2023/07/20 08:20:16;;;;;;;1.92;1.30;;;18.40;99.90;;;;;;5050028;28;20048;-81
2023/07/20 08:22:42;;;;;;;1.95;1.38;;;18.50;99.90;;;;;;5029739;28;20075;-80
2023/07/20 08:25:08;;;;;;;3.25;2.08;;;18.70;99.90;;;;;;5049494;28;20477;-80
2023/07/20 08:27:34;;;;;;;4.05;1.30;;;18.60;99.90;;;;;;5032166;28;20037;-79
2023/07/20 08:30:00;;;;;;;2.28;1.38;;;18.50;99.90;;;;;;5048259;28;20041;-79
2023/07/20 08:32:26;;;;;;;1.40;1.27;;;18.50;99.90;;;;;;5016476;28;20036;-80
2023/07/20 08:34:52;;;;;;;1.98;1.38;;;18.70;99.90;;;;;;5032324;28;20053;-79
2023/07/20 08:37:18;;;;;;;7.30;1.10;;;19.00;99.90;;;;;;5032544;28;20029;-79
2023/07/20 08:39:44;;;;;;;2.30;1.33;;;19.20;99.90;;;;;;5032857;28;20431;-79
2023/07/20 08:42:10;;;;;;;2.72;1.02;;;19.10;99.90;;;;;;5031450;28;20044;-79
2023/07/20 08:44:39;;;;;;;2.30;1.15;;;18.80;99.90;;;;;;5066699;28;20040;-79
2023/07/20 08:47:07;;;;;;;3.80;1.10;;;18.70;99.90;;;;;;5062635;28;20049;-79
2023/07/20 08:49:33;;;;;;;2.47;1.30;;;18.80;99.90;;;;;;5032171;28;20029;-79
2023/07/20 08:52:00;;;;;;;2.60;1.33;;;19.10;99.90;;;;;;5048366;28;20029;-79
2023/07/20 08:54:34;;;;;;;2.97;1.85;;;19.30;99.90;;;;;;5030876;28;20124;-80
2023/07/20 08:57:04;;;;;;;2.05;1.83;;;19.50;99.90;;;;;;5031814;28;20037;-79
2023/07/20 08:59:30;;;;;;;1.33;1.05;;;19.70;99.80;;;;;;5015971;28;20110;-79
2023/07/20 09:01:59;;;;;;;3.75;1.00;;;19.80;99.80;;;;;;5031921;28;20072;-79
2023/07/20 09:04:26;;;;;;;3.47;1.15;;;20.10;95.20;;;;;;5032290;28;20041;-79
2023/07/20 09:06:51;;;;;;;1.10;0.95;;;20.20;99.70;;;;;;5032271;28;20131;-79
2023/07/20 09:09:17;;;;;;;1.25;1.00;;;20.30;97.60;;;;;;5016054;28;20120;-80
2023/07/20 09:11:47;;;;;;;2.05;1.30;;;20.10;97.90;;;;;;5049247;28;20125;-80
2023/07/20 09:14:12;;;;;;;1.33;1.20;;;19.80;96.90;;;;;;5049237;28;20044;-79
2023/07/20 09:16:50;;;;;;;3.75;1.15;;;19.60;97.20;;;;;;5049230;28;20387;-80
2023/07/20 09:19:17;;;;;;;1.67;1.15;;;19.70;97.40;;;;;;5016097;28;20311;-80
2023/07/20 09:21:47;;;;;;;1.55;1.25;;;19.80;97.20;;;;;;5048844;28;20081;-80
2023/07/20 09:24:13;;;;;;;1.23;1.10;;;20.00;97.50;;;;;;5048621;28;20069;-79
2023/07/20 09:26:43;;;;;;;1.95;1.15;;;20.10;97.40;;;;;;5048235;28;20033;-78
2023/07/20 09:29:10;;;;;;;1.30;1.17;;;20.20;97.00;;;;;;5031247;28;20079;-78
2023/07/20 09:31:35;;;;;;;1.58;0.95;;;20.20;97.10;;;;;;5031645;28;20052;-79
2023/07/20 09:34:01;;;;;;;2.13;1.00;;;20.30;96.50;;;;;;5050750;28;20045;-79
2023/07/20 09:36:28;;;;;;;0.85;0.75;;;20.40;95.90;;;;;;5031943;28;20506;-79
2023/07/20 09:38:53;;;;;;;2.00;1.00;;;20.50;93.90;;;;;;5019323;28;20040;-79
2023/07/20 09:41:20;;;;;;;1.35;0.93;;;20.70;93.90;;;;;;5037554;28;20087;-79
2023/07/20 09:43:46;;;;;;;1.15;0.80;;;20.70;92.90;;;;;;5034940;28;20078;-79
2023/07/20 09:46:13;;;;;;;1.63;1.10;;;20.80;94.40;;;;;;5035281;28;20043;-79
2023/07/20 09:48:39;;;;;;;0.88;0.88;;;21.00;95.40;;;;;;5018964;28;20549;-79
2023/07/20 09:51:06;;;;;;;2.83;1.10;;;21.00;92.30;;;;;;5051904;28;20076;-79
2023/07/20 09:53:33;;;;;;;0.88;0.80;;;21.10;93.70;;;;;;5052362;28;20131;-78
2023/07/20 09:55:59;;;;;;;1.40;1.30;;;21.20;93.50;;;;;;5032229;28;20088;-79
2023/07/20 09:58:27;;;;;;;1.10;0.90;;;21.30;90.00;;;;;;5057951;28;20072;-79
2023/07/20 10:00:57;;;;;;;3.78;1.10;;;21.30;90.00;;;;;;5031177;28;20095;-79
2023/07/20 10:03:28;;;;;;;3.10;1.10;;;21.50;90.80;;;;;;5040931;28;20120;-79
2023/07/20 10:05:58;;;;;;;1.48;1.08;;;21.60;90.30;;;;;;5074490;28;20072;-78
2023/07/20 10:08:29;;;;;;;1.83;1.10;;;21.50;90.30;;;;;;5021640;28;20037;-78
2023/07/20 10:10:57;;;;;;;1.03;0.93;;;21.30;85.30;;;;;;5050767;28;20395;-78
2023/07/20 10:13:28;;;;;;;2.75;1.08;;;21.10;86.60;;;;;;5051678;28;20041;-78
2023/07/20 10:16:04;;;;;;;1.60;1.10;;;20.90;88.70;;;;;;5054530;28;20041;-77
2023/07/20 10:18:33;;;;;;;2.30;1.20;;;21.00;89.70;;;;;;5031720;28;20068;-77
2023/07/20 10:21:01;;;;;;;2.28;1.00;;;21.20;89.50;;;;;;5018540;28;20037;-77
2023/07/20 10:23:30;;;;;;;2.45;1.25;;;21.50;89.00;;;;;;5042534;28;20126;-77
2023/07/20 10:25:57;;;;;;;2.35;0.88;;;21.80;87.30;;;;;;5033817;28;20120;-77
2023/07/20 10:28:24;;;;;;;0.73;0.70;;;21.90;84.50;;;;;;5023682;28;20128;-77
2023/07/20 10:30:50;;;;;;;2.15;1.35;;;21.70;84.40;;;;;;5013242;28;20042;-77
2023/07/20 10:33:19;;;;;;;1.85;1.20;;;21.60;85.00;;;;;;5029350;28;20048;-76
2023/07/20 10:35:55;;;;;;;2.65;1.13;;;21.70;88.20;;;;;;5028717;28;20075;-77
2023/07/20 10:38:46;;;;;;;1.35;1.23;;;21.70;86.30;;;;;;5048799;28;20074;-77
2023/07/20 10:41:48;;;;;;;3.28;1.05;;;21.50;84.60;;;;;;5030309;28;20112;-77
2023/07/20 10:44:20;;;;;;;1.20;0.80;;;21.30;83.70;;;;;;4955795;28;20480;-77
2023/07/20 10:46:49;;;;;;;0.80;0.80;;;21.30;84.60;;;;;;5059314;28;20132;-79
2023/07/20 10:49:15;;;;;;;1.40;1.20;;;21.50;87.30;;;;;;5053655;28;20048;-79
2023/07/20 10:51:42;;;;;;;1.25;1.08;;;21.40;84.40;;;;;;5020791;28;20116;-79
2023/07/20 10:54:34;;;;;;;2.78;1.10;;;21.40;86.50;;;;;;5087058;28;20083;-79
2023/07/20 10:57:30;;;;;;;2.38;1.10;;;21.40;84.20;;;;;;5033913;28;20047;-79
2023/07/20 11:00:11;;;;;;;1.15;0.90;;;21.40;84.30;;;;;;5035713;28;20091;-79
2023/07/20 11:02:49;;;;;;;2.20;1.20;;;21.30;84.40;;;;;;5037016;28;20171;-79
2023/07/20 11:05:38;;;;;;;3.80;1.35;;;21.20;85.60;;;;;;5036491;28;20051;-78
2023/07/20 11:08:06;;;;;;;2.08;1.17;;;21.10;84.80;;;;;;5036350;28;20041;-79
2023/07/20 11:10:32;;;;;;;2.30;1.30;;;21.10;87.00;;;;;;5036507;28;20376;-78
2023/07/20 11:13:24;;;;;;;2.13;0.95;;;21.00;86.30;;;;;;5053104;28;20045;-78
2023/07/20 11:15:59;;;;;;;2.65;0.77;;;20.90;86.70;;;;;;5086455;28;20494;-78
2023/07/20 11:18:28;;;;;;;2.63;1.20;;;20.90;87.40;;;;;;5036186;28;20068;-77
2023/07/20 11:20:54;;;;;;;0.75;0.75;;;20.90;88.60;;;;;;5033776;28;20468;-78
2023/07/20 11:23:20;;;;;;;2.13;1.50;;;20.80;90.70;;;;;;5051175;28;20045;-78
2023/07/20 11:25:46;;;;;;;1.27;1.10;;;20.80;91.50;;;;;;5034427;28;20083;-78
2023/07/20 11:28:12;;;;;;;1.42;1.13;;;20.60;91.80;;;;;;5033789;28;20099;-78
2023/07/20 11:30:38;;;;;;;4.40;1.40;;;20.60;92.90;;;;;;5016599;28;20455;-78
2023/07/20 11:33:14;;;;;;;1.58;1.20;;;20.60;93.80;;;;;;5033333;28;20090;-78
2023/07/20 11:35:47;;;;;;;1.88;1.50;;;20.70;95.20;;;;;;5017267;28;20036;-77
2023/07/20 11:38:13;;;;;;;1.90;1.50;;;20.70;96.00;;;;;;5083513;28;20052;-77
2023/07/20 11:40:46;;;;;;;1.92;1.58;;;20.70;96.60;;;;;;5050036;28;20076;-77
2023/07/20 11:43:15;;;;;;;2.47;1.60;;;20.70;97.50;;;;;;5084148;28;20044;-78
2023/07/20 11:45:41;;;;;;;1.25;1.15;;;20.80;98.10;;;;;;5083577;28;20057;-78
2023/07/20 11:48:07;;;;;;;1.88;1.38;;;21.10;97.40;;;;;;5049562;28;20051;-78
2023/07/20 11:50:38;;;;;;;2.40;1.20;;;21.30;97.00;;;;;;5033053;28;20044;-78
2023/07/20 11:53:04;;;;;;;2.28;1.27;;;21.60;97.40;;;;;;5049807;28;20075;-78
2023/07/20 11:55:31;;;;;;;1.65;1.35;;;21.80;95.80;;;;;;5015945;28;20041;-77
2023/07/20 11:58:07;;;;;;;1.58;1.20;;;21.70;95.20;;;;;;5050105;28;20051;-78
2023/07/20 12:00:34;;;;;;;2.90;1.50;;;21.90;93.60;;;;;;5049398;28;20047;-78
2023/07/20 12:03:00;;;;;;;2.58;1.17;;;21.80;92.90;;;;;;5032946;28;20494;-78
2023/07/20 12:05:26;;;;;;;1.98;1.13;;;21.80;91.60;;;;;;5051435;28;20041;-78
2023/07/20 12:07:52;;;;;;;1.75;0.95;;;21.70;92.80;;;;;;5034927;28;20128;-78
2023/07/20 12:10:27;;;;;;;1.45;1.30;;;21.70;92.70;;;;;;5050821;28;20033;-77
2023/07/20 12:12:53;;;;;;;1.75;1.13;;;21.70;92.90;;;;;;5026870;28;20036;-78
2023/07/20 12:15:26;;;;;;;1.42;1.10;;;21.70;92.70;;;;;;5028721;28;20047;-77
2023/07/20 12:17:53;;;;;;;3.13;1.42;;;22.00;92.60;;;;;;5029350;28;20140;-77
2023/07/20 12:20:38;;;;;;;2.78;1.05;;;22.00;92.40;;;;;;5036244;28;20074;-77
2023/07/20 12:23:12;;;;;;;2.22;1.40;;;21.90;91.60;;;;;;5029252;28;20048;-77
2023/07/20 12:25:45;;;;;;;2.50;1.23;;;22.10;92.90;;;;;;5035390;28;20045;-77
2023/07/20 12:28:15;;;;;;;2.75;1.30;;;22.50;93.60;;;;;;5031648;28;20040;-77
2023/07/20 12:30:44;;;;;;;2.13;1.10;;;22.70;90.80;;;;;;5025079;28;20087;-77
2023/07/20 12:33:09;;;;;;;2.42;1.25;;;22.90;90.50;;;;;;5035583;28;20072;-76
2023/07/20 12:35:35;;;;;;;2.22;1.25;;;23.00;90.20;;;;;;5020175;28;20079;-76
2023/07/20 12:38:01;;;;;;;2.35;1.30;;;23.20;88.90;;;;;;5035883;28;20068;-76
2023/07/20 12:40:27;;;;;;;4.00;1.50;;;23.30;90.90;;;;;;5036835;28;20045;-76
2023/07/20 12:42:53;;;;;;;2.90;1.60;;;23.20;91.70;;;;;;5048681;28;20541;-76
2023/07/20 12:45:18;;;;;;;1.73;1.50;;;23.30;90.40;;;;;;5050808;28;20080;-76
2023/07/20 12:47:44;;;;;;;4.50;1.40;;;23.40;91.30;;;;;;5032290;28;20044;-76